sensor_id;sensor_type;location;lat;lon;timestamp;pressure;altitude;pressure_sealevel;temperature;humidity
43691;BME280;29293;52.190;21.226;2023-04-25T00:06:43;99076.11;;;9.98;100.00
43691;BME280;29293;52.190;21.226;2023-04-25T00:21:50;99076.41;;;9.87;100.00
43691;BME280;29293;52.190;21.226;2023-04-25T00:36:56;99087.69;;;9.81;100.00
43691;BME280;29293;52.190;21.226;2023-04-25T00:52:04;99080.48;;;9.63;100.00
43691;BME280;29293;52.190;21.226;2023-04-25T01:07:11;99071.16;;;9.47;100.00
43691;BME280;29293;52.190;21.226;2023-04-25T01:22:18;99078.15;;;9.26;100.00
43691;BME280;29293;52.190;21.226;2023-04-25T01:37:26;99068.17;;;9.19;100.00
43691;BME280;29293;52.190;21.226;2023-04-25T01:52:33;99061.17;;;9.09;100.00
43691;BME280;29293;52.190;21.226;2023-04-25T02:07:39;99059.89;;;8.81;100.00
43691;BME280;29293;52.190;21.226;2023-04-25T02:22:46;99040.80;;;8.50;100.00
43691;BME280;29293;52.190;21.226;2023-04-25T02:37:53;99039.42;;;8.38;100.00
43691;BME280;29293;52.190;21.226;2023-04-25T02:53:00;99046.27;;;8.41;100.00
43691;BME280;29293;52.190;21.226;2023-04-25T03:08:07;99045.40;;;8.44;100.00
43691;BME280;29293;52.190;21.226;2023-04-25T03:23:13;99041.44;;;8.41;100.00
43691;BME280;29293;52.190;21.226;2023-04-25T03:38:20;99043.68;;;8.46;100.00
43691;BME280;29293;52.190;21.226;2023-04-25T03:53:27;99050.64;;;8.63;100.00
43691;BME280;29293;52.190;21.226;2023-04-25T04:08:33;99061.44;;;9.14;100.00
43691;BME280;29293;52.190;21.226;2023-04-25T04:23:42;99064.59;;;9.69;100.00
43691;BME280;29293;52.190;21.226;2023-04-25T04:38:49;99082.63;;;10.05;100.00
43691;BME280;29293;52.190;21.226;2023-04-25T04:53:56;99086.38;;;10.43;100.00
43691;BME280;29293;52.190;21.226;2023-04-25T05:09:06;99087.73;;;10.74;100.00
43691;BME280;29293;52.190;21.226;2023-04-25T05:24:13;99082.41;;;11.01;100.00
43691;BME280;29293;52.190;21.226;2023-04-25T05:39:20;99087.87;;;11.32;100.00
43691;BME280;29293;52.190;21.226;2023-04-25T05:54:27;99096.04;;;11.37;100.00
43691;BME280;29293;52.190;21.226;2023-04-25T06:09:34;99092.42;;;11.39;100.00
43691;BME280;29293;52.190;21.226;2023-04-25T06:24:40;99101.94;;;11.54;100.00
43691;BME280;29293;52.190;21.226;2023-04-25T06:39:47;99123.89;;;11.31;100.00
43691;BME280;29293;52.190;21.226;2023-04-25T06:54:54;99129.77;;;10.86;100.00
43691;BME280;29293;52.190;21.226;2023-04-25T07:10:01;99133.78;;;10.81;100.00
43691;BME280;29293;52.190;21.226;2023-04-25T07:25:09;99128.06;;;11.01;100.00
43691;BME280;29293;52.190;21.226;2023-04-25T07:40:16;99135.67;;;10.81;100.00
43691;BME280;29293;52.190;21.226;2023-04-25T07:55:23;99149.31;;;10.67;100.00
43691;BME280;29293;52.190;21.226;2023-04-25T08:10:30;99155.55;;;10.97;100.00
43691;BME280;29293;52.190;21.226;2023-04-25T08:25:36;99166.16;;;11.49;100.00
43691;BME280;29293;52.190;21.226;2023-04-25T08:40:44;99167.11;;;11.55;100.00
43691;BME280;29293;52.190;21.226;2023-04-25T08:55:56;99180.54;;;11.49;100.00
43691;BME280;29293;52.190;21.226;2023-04-25T09:11:04;99197.75;;;11.07;100.00
43691;BME280;29293;52.190;21.226;2023-04-25T09:26:10;99221.38;;;10.94;100.00
43691;BME280;29293;52.190;21.226;2023-04-25T09:41:25;99244.23;;;10.67;100.00
43691;BME280;29293;52.190;21.226;2023-04-25T09:56:35;99244.48;;;10.37;100.00
43691;BME280;29293;52.190;21.226;2023-04-25T10:11:42;99249.23;;;10.31;100.00
43691;BME280;29293;52.190;21.226;2023-04-25T10:26:50;99266.07;;;10.36;100.00
43691;BME280;29293;52.190;21.226;2023-04-25T10:41:58;99263.58;;;10.23;100.00
43691;BME280;29293;52.190;21.226;2023-04-25T10:57:07;99259.48;;;10.34;100.00
43691;BME280;29293;52.190;21.226;2023-04-25T11:12:19;99262.77;;;10.56;100.00
43691;BME280;29293;52.190;21.226;2023-04-25T11:27:25;99267.89;;;10.39;100.00
43691;BME280;29293;52.190;21.226;2023-04-25T11:42:32;99268.39;;;10.18;100.00
43691;BME280;29293;52.190;21.226;2023-04-25T11:57:41;99268.55;;;10.10;100.00
43691;BME280;29293;52.190;21.226;2023-04-25T12:12:49;99271.70;;;10.14;100.00
43691;BME280;29293;52.190;21.226;2023-04-25T12:28:08;99271.34;;;10.25;100.00
43691;BME280;29293;52.190;21.226;2023-04-25T12:43:15;99257.07;;;10.47;100.00
43691;BME280;29293;52.190;21.226;2023-04-25T12:58:22;99248.41;;;10.68;100.00
43691;BME280;29293;52.190;21.226;2023-04-25T13:13:29;99237.98;;;10.86;100.00
43691;BME280;29293;52.190;21.226;2023-04-25T13:28:36;99232.15;;;10.98;100.00
43691;BME280;29293;52.190;21.226;2023-04-25T13:43:43;99232.40;;;10.80;100.00
43691;BME280;29293;52.190;21.226;2023-04-25T13:58:51;99232.47;;;10.70;100.00
43691;BME280;29293;52.190;21.226;2023-04-25T14:13:58;99234.56;;;10.58;100.00
43691;BME280;29293;52.190;21.226;2023-04-25T14:29:05;99241.58;;;10.55;100.00
43691;BME280;29293;52.190;21.226;2023-04-25T14:44:12;99245.11;;;10.18;100.00
43691;BME280;29293;52.190;21.226;2023-04-25T14:59:21;99249.86;;;9.82;100.00
43691;BME280;29293;52.190;21.226;2023-04-25T15:14:26;99245.89;;;9.61;100.00
43691;BME280;29293;52.190;21.226;2023-04-25T15:29:36;99248.89;;;9.61;100.00
43691;BME280;29293;52.190;21.226;2023-04-25T15:44:44;99256.09;;;9.64;100.00
43691;BME280;29293;52.190;21.226;2023-04-25T15:59:53;99253.72;;;9.53;100.00
43691;BME280;29293;52.190;21.226;2023-04-25T16:15:01;99261.34;;;9.33;100.00
43691;BME280;29293;52.190;21.226;2023-04-25T16:30:09;99266.20;;;9.16;100.00
43691;BME280;29293;52.190;21.226;2023-04-25T16:45:17;99269.95;;;9.08;100.00
43691;BME280;29293;52.190;21.226;2023-04-25T17:00:25;99279.73;;;8.80;100.00
43691;BME280;29293;52.190;21.226;2023-04-25T17:15:32;99293.09;;;8.41;100.00
43691;BME280;29293;52.190;21.226;2023-04-25T17:30:39;99310.41;;;8.09;100.00
43691;BME280;29293;52.190;21.226;2023-04-25T17:45:46;99318.02;;;7.87;100.00
43691;BME280;29293;52.190;21.226;2023-04-25T18:26:53;99355.77;;;7.90;100.00
43691;BME280;29293;52.190;21.226;2023-04-25T18:42:01;99393.19;;;7.59;100.00
43691;BME280;29293;52.190;21.226;2023-04-25T18:57:08;99413.21;;;7.40;100.00
43691;BME280;29293;52.190;21.226;2023-04-25T19:12:18;99424.70;;;7.33;100.00
43691;BME280;29293;52.190;21.226;2023-04-25T19:27:26;99429.95;;;7.29;100.00
43691;BME280;29293;52.190;21.226;2023-04-25T19:42:33;99435.15;;;7.28;100.00
43691;BME280;29293;52.190;21.226;2023-04-25T19:57:40;99441.72;;;7.21;100.00
43691;BME280;29293;52.190;21.226;2023-04-25T20:12:47;99442.13;;;7.13;100.00
43691;BME280;29293;52.190;21.226;2023-04-25T20:27:54;99436.45;;;7.09;100.00
43691;BME280;29293;52.190;21.226;2023-04-25T20:43:01;99438.96;;;7.06;100.00
43691;BME280;29293;52.190;21.226;2023-04-25T20:58:09;99442.61;;;7.04;100.00
43691;BME280;29293;52.190;21.226;2023-04-25T21:13:16;99443.06;;;7.06;100.00
43691;BME280;29293;52.190;21.226;2023-04-25T21:28:23;99444.71;;;7.06;100.00
43691;BME280;29293;52.190;21.226;2023-04-25T21:43:30;99437.94;;;7.05;100.00
43691;BME280;29293;52.190;21.226;2023-04-25T21:58:36;99437.27;;;7.05;100.00
43691;BME280;29293;52.190;21.226;2023-04-25T22:13:43;99437.75;;;7.02;100.00
43691;BME280;29293;52.190;21.226;2023-04-25T22:28:51;99439.98;;;7.02;100.00
43691;BME280;29293;52.190;21.226;2023-04-25T22:43:58;99444.92;;;7.05;100.00
43691;BME280;29293;52.190;21.226;2023-04-25T22:59:04;99443.96;;;7.03;100.00
43691;BME280;29293;52.190;21.226;2023-04-25T23:14:11;99462.75;;;6.93;100.00
43691;BME280;29293;52.190;21.226;2023-04-25T23:29:18;99479.51;;;6.64;100.00
43691;BME280;29293;52.190;21.226;2023-04-25T23:44:25;99488.35;;;6.41;100.00
43691;BME280;29293;52.190;21.226;2023-04-25T23:59:32;99490.00;;;6.23;100.00
